createdAt,value
2022-11-29T00:01:14.511Z,38.38
2022-11-29T00:03:41.780Z,40.53
2022-11-29T00:06:14.748Z,38.22
2022-11-29T00:08:42.442Z,39.10
2022-11-29T00:11:38.271Z,38.47
2022-11-29T00:14:10.501Z,38.97
2022-11-29T00:16:37.830Z,38.00
2022-11-29T00:19:05.066Z,38.20
2022-11-29T00:21:32.303Z,37.45
2022-11-29T00:24:08.947Z,38.05
2022-11-29T00:26:37.168Z,37.20
2022-11-29T00:29:04.717Z,38.50
2022-11-29T00:31:32.920Z,37.15
2022-11-29T00:34:02.993Z,38.05
2022-11-29T00:36:30.659Z,37.80
2022-11-29T00:38:57.895Z,38.78
2022-11-29T00:41:25.259Z,36.15
2022-11-29T00:43:53.224Z,38.47
2022-11-29T00:46:20.616Z,38.22
2022-11-29T00:48:47.868Z,35.75
2022-11-29T00:51:15.192Z,35.70
2022-11-29T00:53:42.417Z,36.70
2022-11-29T00:56:10.128Z,36.47
2022-11-29T00:58:37.566Z,35.42
2022-11-29T01:01:05.517Z,36.50
2022-11-29T01:03:33.218Z,35.80
2022-11-29T01:06:12.351Z,35.90
2022-11-29T01:08:39.982Z,34.90
2022-11-29T01:11:18.799Z,36.15
2022-11-29T01:13:45.982Z,35.38
2022-11-29T01:16:14.663Z,34.45
2022-11-29T01:18:42.152Z,35.78
2022-11-29T01:21:12.525Z,34.90
2022-11-29T01:23:40.200Z,35.45
2022-11-29T01:26:10.033Z,36.20
2022-11-29T01:28:38.099Z,36.58
2022-11-29T01:31:14.367Z,35.72
2022-11-29T01:33:42.292Z,34.92
2022-11-29T01:36:10.377Z,37.45
2022-11-29T01:38:38.079Z,34.90
2022-11-29T01:41:08.525Z,35.72
2022-11-29T01:43:56.593Z,35.78
2022-11-29T01:46:23.862Z,35.78
2022-11-29T01:48:54.040Z,34.88
2022-11-29T01:51:21.324Z,36.30
2022-11-29T01:53:48.592Z,37.95
2022-11-29T01:56:16.418Z,35.50
2022-11-29T01:58:45.025Z,36.80
2022-11-29T02:01:12.852Z,36.03
2022-11-29T02:03:40.130Z,34.80
2022-11-29T02:06:08.364Z,35.28
2022-11-29T02:08:43.603Z,35.58
2022-11-29T02:11:52.664Z,35.38
2022-11-29T02:14:32.968Z,33.53
2022-11-29T02:17:07.364Z,36.10
2022-11-29T02:19:47.394Z,35.03
2022-11-29T02:22:33.773Z,34.53
2022-11-29T02:25:13.333Z,36.58
2022-11-29T02:28:20.836Z,36.72
2022-11-29T02:31:06.609Z,35.85
2022-11-29T02:34:11.581Z,35.00
2022-11-29T02:37:16.526Z,35.03
2022-11-29T02:39:43.644Z,34.60
2022-11-29T02:42:19.662Z,35.90
2022-11-29T02:45:12.706Z,35.47
2022-11-29T02:48:11.310Z,35.35
2022-11-29T02:51:04.409Z,36.05
2022-11-29T02:53:47.323Z,37.95
2022-11-29T02:56:38.912Z,36.28
2022-11-29T02:59:23.747Z,34.60
2022-11-29T03:02:15.185Z,35.80
2022-11-29T03:05:04.302Z,35.95
2022-11-29T03:08:03.893Z,35.25
2022-11-29T03:10:52.501Z,35.63
2022-11-29T03:13:45.912Z,35.33
2022-11-29T03:16:42.840Z,35.20
2022-11-29T03:19:49.040Z,35.88
2022-11-29T03:22:55.539Z,35.67
2022-11-29T03:25:53.569Z,37.00
2022-11-29T03:28:31.820Z,34.65
2022-11-29T03:31:16.386Z,36.45
2022-11-29T03:33:56.589Z,35.72
2022-11-29T03:36:36.603Z,35.67
2022-11-29T03:39:07.771Z,36.13
2022-11-29T03:41:46.964Z,34.08
2022-11-29T03:44:17.804Z,35.85
2022-11-29T03:47:09.103Z,35.92
2022-11-29T03:49:45.979Z,35.70
2022-11-29T03:52:34.769Z,34.35
2022-11-29T03:55:45.145Z,35.90
2022-11-29T03:58:39.585Z,35.63
2022-11-29T04:01:37.942Z,36.80
2022-11-29T04:04:26.833Z,35.70
2022-11-29T04:07:33.624Z,36.33
2022-11-29T04:10:28.892Z,35.60
2022-11-29T04:13:14.458Z,35.60
2022-11-29T04:16:18.384Z,35.17
2022-11-29T04:19:15.891Z,36.28
2022-11-29T04:22:24.049Z,35.45
2022-11-29T04:25:13.454Z,35.28
2022-11-29T04:28:06.325Z,35.47
2022-11-29T04:31:03.176Z,34.33
2022-11-29T04:34:12.646Z,36.28
2022-11-29T04:37:04.050Z,35.92
2022-11-29T04:40:14.267Z,37.20
2022-11-29T04:43:11.328Z,35.13
2022-11-29T04:46:15.891Z,36.70
2022-11-29T04:49:04.075Z,36.35
2022-11-29T04:52:01.478Z,36.28
2022-11-29T04:54:49.979Z,36.85
2022-11-29T04:57:46.439Z,37.27
2022-11-29T05:00:16.092Z,37.28
2022-11-29T05:03:00.722Z,36.42
2022-11-29T05:05:42.874Z,35.83
2022-11-29T05:08:39.198Z,35.85
2022-11-29T05:11:38.310Z,34.90
2022-11-29T05:14:25.393Z,37.22
2022-11-29T05:17:26.418Z,37.08
2022-11-29T05:20:30.588Z,34.65
2022-11-29T05:23:29.470Z,37.00
2022-11-29T05:26:05.451Z,35.53
2022-11-29T05:29:01.024Z,38.13
2022-11-29T05:31:49.993Z,37.38
2022-11-29T05:34:39.573Z,37.00
2022-11-29T05:37:39.406Z,38.15
2022-11-29T05:40:49.311Z,36.33
2022-11-29T05:43:32.227Z,36.75
2022-11-29T05:46:17.532Z,38.20
2022-11-29T05:48:56.840Z,37.85
2022-11-29T05:51:50.659Z,35.47
2022-11-29T05:54:29.572Z,38.33
2022-11-29T05:57:08.715Z,37.92
2022-11-29T05:59:38.999Z,35.83
2022-11-29T06:02:31.994Z,37.90
2022-11-29T06:05:36.069Z,36.67
2022-11-29T06:08:16.767Z,37.70
2022-11-29T06:11:02.888Z,36.40
2022-11-29T06:14:00.599Z,36.88
2022-11-29T06:16:30.778Z,35.88
2022-11-29T06:19:31.653Z,38.58
2022-11-29T06:22:27.932Z,37.65
2022-11-29T06:25:37.604Z,37.47
2022-11-29T06:28:31.545Z,37.63
2022-11-29T06:31:26.083Z,39.15
2022-11-29T06:33:56.575Z,37.55
2022-11-29T06:36:30.090Z,39.30
2022-11-29T06:38:57.334Z,37.83
2022-11-29T06:41:24.765Z,37.83
2022-11-29T06:43:52.387Z,37.33
2022-11-29T06:46:37.820Z,37.40
2022-11-29T06:49:37.643Z,37.90
2022-11-29T06:52:23.076Z,38.50
2022-11-29T06:55:01.262Z,36.72
2022-11-29T06:57:47.286Z,37.40
2022-11-29T07:00:21.647Z,36.58
2022-11-29T07:03:03.848Z,36.78
2022-11-29T07:05:33.169Z,36.83
2022-11-29T07:08:03.985Z,35.05
2022-11-29T07:10:33.735Z,36.00
2022-11-29T07:13:01.148Z,37.85
2022-11-29T07:15:28.817Z,38.28
2022-11-29T07:18:03.759Z,37.95
2022-11-29T07:20:56.828Z,36.45
2022-11-29T07:23:51.404Z,36.92
2022-11-29T07:26:35.502Z,38.58
2022-11-29T07:29:27.746Z,38.33
2022-11-29T07:32:23.733Z,36.08
2022-11-29T07:35:19.453Z,37.08
2022-11-29T07:38:17.881Z,37.65
2022-11-29T07:41:06.837Z,39.40
2022-11-29T07:43:34.076Z,40.38
2022-11-29T07:46:01.493Z,38.90
2022-11-29T07:48:28.680Z,39.72
2022-11-29T07:50:56.345Z,36.78
2022-11-29T07:53:24.146Z,35.85
2022-11-29T07:55:53.066Z,36.17
2022-11-29T07:58:20.284Z,35.95
2022-11-29T08:00:47.568Z,38.05
2022-11-29T08:03:15.031Z,37.50
2022-11-29T08:05:46.546Z,37.33
2022-11-29T08:08:13.886Z,37.83
2022-11-29T08:10:41.070Z,36.55
2022-11-29T08:13:08.275Z,37.45
2022-11-29T08:15:35.497Z,37.45
2022-11-29T08:18:03.353Z,35.85
2022-11-29T08:20:30.542Z,38.42
2022-11-29T08:22:59.163Z,38.08
2022-11-29T08:25:27.191Z,39.08
2022-11-29T08:27:54.812Z,37.85
2022-11-29T08:30:22.638Z,38.92
2022-11-29T08:32:51.804Z,37.55
2022-11-29T08:35:20.902Z,38.10
2022-11-29T08:37:48.118Z,39.13
2022-11-29T08:40:15.822Z,39.00
2022-11-29T08:42:43.151Z,39.10
2022-11-29T08:45:11.044Z,38.33
2022-11-29T08:47:39.072Z,38.20
2022-11-29T08:50:14.951Z,37.15
2022-11-29T08:53:05.922Z,38.47
2022-11-29T08:55:35.302Z,39.90
2022-11-29T09:00:34.470Z,37.17
2022-11-29T09:03:24.792Z,36.33
2022-11-29T09:05:52.465Z,39.40
2022-11-29T09:08:19.804Z,38.58
2022-11-29T09:10:47.509Z,37.47
2022-11-29T09:13:14.703Z,38.17
2022-11-29T09:15:43.336Z,40.65
2022-11-29T09:18:10.691Z,38.78
2022-11-29T09:20:38.063Z,41.13
2022-11-29T09:23:05.241Z,37.75
2022-11-29T09:25:32.441Z,37.03
2022-11-29T09:28:03.550Z,38.03
2022-11-29T09:30:31.735Z,36.30
2022-11-29T09:33:03.892Z,36.97
2022-11-29T09:35:31.287Z,39.63
2022-11-29T09:37:58.608Z,37.28
2022-11-29T09:40:40.305Z,38.40
2022-11-29T09:43:34.417Z,37.60
2022-11-29T09:46:22.934Z,38.70
2022-11-29T09:49:21.902Z,36.92
2022-11-29T09:52:10.905Z,37.67
2022-11-29T09:54:56.758Z,37.55
2022-11-29T09:57:26.972Z,35.17
2022-11-29T10:00:02.145Z,33.63
2022-11-29T10:02:37.484Z,34.78
2022-11-29T10:05:18.867Z,37.53
2022-11-29T10:07:58.680Z,35.13
2022-11-29T10:10:33.671Z,35.92
2022-11-29T10:13:07.396Z,37.22
2022-11-29T10:15:39.173Z,35.92
2022-11-29T10:18:19.488Z,34.70
2022-11-29T10:20:49.464Z,34.47
2022-11-29T10:23:43.116Z,36.63
2022-11-29T10:26:12.202Z,37.13
2022-11-29T10:28:44.926Z,38.25
2022-11-29T10:31:40.148Z,35.55
2022-11-29T10:34:19.272Z,34.67
2022-11-29T10:36:50.450Z,35.33
2022-11-29T10:39:25.026Z,35.80
2022-11-29T10:41:55.832Z,36.95
2022-11-29T10:44:23.423Z,34.92
2022-11-29T10:46:50.749Z,35.13
2022-11-29T10:49:19.892Z,35.38
2022-11-29T10:51:47.550Z,35.83
2022-11-29T10:54:36.437Z,34.72
2022-11-29T10:57:13.791Z,34.60
2022-11-29T10:59:41.380Z,36.55
2022-11-29T11:02:19.275Z,35.03
2022-11-29T11:04:48.231Z,35.75
2022-11-29T11:07:28.057Z,35.00
2022-11-29T11:09:57.160Z,33.75
2022-11-29T11:12:30.985Z,34.58
2022-11-29T11:15:28.607Z,35.97
2022-11-29T11:18:00.967Z,33.95
2022-11-29T11:20:32.924Z,33.00
2022-11-29T11:23:11.821Z,32.28
2022-11-29T11:25:40.032Z,35.42
2022-11-29T11:28:21.243Z,34.08
2022-11-29T11:31:05.619Z,32.88
2022-11-29T11:33:35.288Z,33.45
2022-11-29T11:36:12.326Z,33.72
2022-11-29T11:38:42.264Z,32.70
2022-11-29T11:41:54.135Z,33.30
2022-11-29T11:44:49.819Z,31.30
2022-11-29T11:47:27.908Z,32.22
2022-11-29T11:50:03.898Z,34.25
2022-11-29T11:52:49.899Z,33.65
2022-11-29T11:55:27.952Z,32.75
2022-11-29T11:58:16.245Z,34.58
2022-11-29T12:01:04.095Z,33.47
2022-11-29T12:03:56.622Z,33.97
2022-11-29T12:06:35.938Z,33.92
2022-11-29T12:09:09.870Z,33.00
2022-11-29T12:11:51.449Z,33.67
2022-11-29T12:14:25.378Z,32.97
2022-11-29T12:16:54.589Z,33.22
2022-11-29T12:19:27.954Z,34.40
2022-11-29T12:21:59.874Z,33.30
2022-11-29T12:24:41.576Z,33.90
2022-11-29T12:27:12.352Z,32.00
2022-11-29T12:29:39.561Z,35.60
2022-11-29T12:32:20.296Z,33.30
2022-11-29T12:35:01.892Z,33.65
2022-11-29T12:37:36.499Z,31.83
2022-11-29T12:40:14.400Z,32.67
2022-11-29T12:42:56.673Z,32.25
2022-11-29T12:45:39.235Z,32.45
2022-11-29T12:48:25.506Z,33.95
2022-11-29T12:51:12.948Z,34.30
2022-11-29T12:54:02.335Z,33.80
2022-11-29T12:59:22.975Z,32.08
2022-11-29T13:01:59.451Z,33.30
2022-11-29T13:04:45.032Z,33.90
2022-11-29T13:07:43.852Z,32.92
2022-11-29T13:10:35.621Z,32.38
2022-11-29T13:13:21.367Z,34.00
2022-11-29T13:15:55.319Z,34.25
2022-11-29T13:18:28.954Z,32.78
2022-11-29T13:21:09.279Z,34.45
2022-11-29T13:24:07.461Z,33.58
2022-11-29T13:26:28.257Z,34.47
2022-11-29T13:28:55.461Z,35.97
2022-11-29T13:31:24.908Z,35.00
2022-11-29T13:34:04.323Z,36.53
2022-11-29T13:36:57.270Z,37.53
2022-11-29T13:39:46.166Z,35.30
2022-11-29T13:42:31.839Z,37.47
2022-11-29T13:45:16.381Z,36.10
2022-11-29T13:47:52.090Z,37.42
2022-11-29T13:50:44.338Z,37.95
2022-11-29T13:53:23.682Z,37.55
2022-11-29T13:58:33.129Z,38.15
2022-11-29T14:01:08.785Z,39.13
2022-11-29T14:03:49.231Z,40.17
2022-11-29T14:06:21.113Z,42.13
2022-11-29T14:12:22.446Z,40.80
2022-11-29T14:14:58.696Z,40.10
2022-11-29T14:17:52.835Z,41.95
2022-11-29T14:20:24.922Z,41.10
2022-11-29T14:23:13.499Z,41.53
2022-11-29T14:26:03.617Z,41.28
2022-11-29T14:28:39.271Z,40.78
2022-11-29T14:31:10.340Z,40.88
2022-11-29T14:33:58.210Z,42.67
2022-11-29T14:36:48.278Z,42.40
2022-11-29T14:39:37.596Z,41.20
2022-11-29T14:44:52.855Z,40.58
2022-11-29T14:47:24.496Z,42.80
2022-11-29T14:49:54.381Z,43.88
2022-11-29T14:52:28.402Z,46.10
2022-11-29T14:55:07.238Z,42.97
2022-11-29T14:57:57.299Z,45.53
2022-11-29T15:00:33.146Z,43.40
2022-11-29T15:03:15.498Z,45.10
2022-11-29T15:05:45.012Z,44.50
2022-11-29T15:08:35.847Z,44.78
2022-11-29T15:11:10.831Z,43.78
2022-11-29T15:13:44.336Z,43.13
2022-11-29T15:16:24.277Z,44.75
2022-11-29T15:19:14.303Z,45.83
2022-11-29T15:21:54.143Z,45.03
2022-11-29T15:24:26.786Z,43.67
2022-11-29T15:27:00.456Z,45.00
2022-11-29T15:29:29.358Z,43.50
2022-11-29T15:31:59.199Z,45.38
2022-11-29T15:34:34.278Z,46.88
2022-11-29T15:37:01.876Z,44.45
2022-11-29T15:39:32.333Z,44.55
2022-11-29T15:42:09.099Z,44.22
2022-11-29T15:44:36.691Z,45.60
2022-11-29T15:47:21.517Z,44.72
2022-11-29T15:49:49.538Z,45.47
2022-11-29T15:52:27.805Z,45.78
2022-11-29T15:55:01.005Z,45.75
2022-11-29T15:57:32.722Z,45.97
2022-11-29T16:00:02.635Z,45.35
2022-11-29T16:02:35.090Z,44.30
2022-11-29T16:05:11.076Z,45.17
2022-11-29T16:07:39.845Z,45.85
2022-11-29T16:10:20.954Z,45.42
2022-11-29T16:12:57.761Z,44.17
2022-11-29T16:15:28.705Z,43.05
2022-11-29T16:17:56.077Z,45.78
2022-11-29T16:20:25.434Z,44.50
2022-11-29T16:25:58.899Z,44.63
2022-11-29T16:28:35.158Z,43.90
2022-11-29T16:31:04.812Z,43.20
2022-11-29T16:33:32.302Z,46.03
2022-11-29T16:36:21.078Z,45.53
2022-11-29T16:38:54.480Z,44.35
2022-11-29T16:41:36.519Z,43.63
2022-11-29T16:44:04.837Z,45.35
2022-11-29T16:46:42.674Z,45.50
2022-11-29T16:49:33.466Z,45.15
2022-11-29T16:52:00.930Z,45.85
2022-11-29T16:54:34.593Z,45.38
2022-11-29T16:57:08.907Z,45.25
2022-11-29T16:59:36.421Z,47.10
2022-11-29T17:02:05.765Z,46.83
2022-11-29T17:07:00.183Z,43.63
2022-11-29T17:09:30.707Z,47.83
2022-11-29T17:12:02.099Z,48.38
2022-11-29T17:14:30.065Z,48.55
2022-11-29T17:16:59.692Z,49.55
2022-11-29T17:19:29.792Z,48.65
2022-11-29T17:21:57.230Z,50.13
2022-11-29T17:24:24.894Z,51.28
2022-11-29T17:26:52.523Z,51.10
2022-11-29T17:29:20.011Z,50.92
2022-11-29T17:31:50.371Z,50.83
2022-11-29T17:34:18.989Z,51.42
2022-11-29T17:36:46.321Z,53.67
2022-11-29T17:39:15.539Z,51.72
2022-11-29T17:41:42.705Z,52.58
2022-11-29T17:44:09.914Z,55.72
2022-11-29T17:46:37.481Z,52.83
2022-11-29T17:49:07.851Z,54.83
2022-11-29T17:51:54.024Z,52.88
2022-11-29T17:54:22.488Z,50.88
2022-11-29T17:56:49.957Z,55.10
2022-11-29T17:59:17.204Z,54.35
2022-11-29T18:01:46.906Z,51.63
2022-11-29T18:04:17.567Z,49.72
2022-11-29T18:06:49.433Z,51.38
2022-11-29T18:09:17.415Z,49.78
2022-11-29T18:11:48.631Z,53.83
2022-11-29T18:14:18.993Z,48.42
2022-11-29T18:16:46.424Z,51.58
2022-11-29T18:19:16.305Z,59.08
2022-11-29T18:21:43.732Z,51.53
2022-11-29T18:24:11.222Z,53.28
2022-11-29T18:26:39.044Z,50.83
2022-11-29T18:29:06.879Z,48.97
2022-11-29T18:31:36.078Z,48.50
2022-11-29T18:34:09.760Z,49.08
2022-11-29T18:36:40.111Z,48.47
2022-11-29T18:39:10.299Z,50.28
2022-11-29T18:41:38.236Z,50.58
2022-11-29T18:44:07.720Z,51.45
2022-11-29T18:46:37.200Z,53.47
2022-11-29T18:49:09.307Z,50.38
2022-11-29T18:51:37.983Z,49.53
2022-11-29T18:54:05.660Z,50.93
2022-11-29T18:56:34.402Z,49.95
2022-11-29T18:59:04.640Z,50.25
2022-11-29T19:01:34.357Z,48.72
2022-11-29T19:04:02.187Z,48.05
2022-11-29T19:06:38.923Z,49.85
2022-11-29T19:09:08.513Z,50.53
2022-11-29T19:11:36.226Z,49.75
2022-11-29T19:14:06.393Z,49.03
2022-11-29T19:16:35.111Z,52.63
2022-11-29T19:19:02.572Z,49.30
2022-11-29T19:21:34.550Z,49.88
2022-11-29T19:24:04.678Z,49.38
2022-11-29T19:26:32.632Z,48.78
2022-11-29T19:29:01.238Z,48.25
2022-11-29T19:31:28.866Z,47.40
2022-11-29T19:33:56.488Z,49.63
2022-11-29T19:36:29.334Z,48.83
2022-11-29T19:38:57.689Z,46.08
2022-11-29T19:41:29.981Z,47.88
2022-11-29T19:43:59.478Z,48.15
2022-11-29T19:46:29.090Z,47.50
2022-11-29T19:48:57.815Z,46.45
2022-11-29T19:51:26.759Z,47.50
2022-11-29T19:53:56.505Z,46.90
2022-11-29T19:56:24.143Z,45.63
2022-11-29T19:58:52.229Z,46.22
2022-11-29T20:01:25.332Z,47.17
2022-11-29T20:03:54.845Z,46.28
2022-11-29T20:08:50.456Z,43.20
2022-11-29T20:11:20.909Z,46.80
2022-11-29T20:14:01.752Z,47.30
2022-11-29T20:16:29.743Z,47.05
2022-11-29T20:18:57.873Z,45.70
2022-11-29T20:21:27.712Z,47.78
2022-11-29T20:24:01.139Z,44.88
2022-11-29T20:26:29.545Z,45.53
2022-11-29T20:28:56.903Z,47.92
2022-11-29T20:31:24.203Z,45.85
2022-11-29T20:33:53.275Z,47.85
2022-11-29T20:36:22.869Z,45.10
2022-11-29T20:39:12.265Z,46.25
2022-11-29T20:42:04.686Z,46.00
2022-11-29T20:44:39.156Z,45.80
2022-11-29T20:47:12.985Z,43.92
2022-11-29T20:49:40.314Z,45.45
2022-11-29T20:52:09.676Z,44.05
2022-11-29T20:57:04.062Z,45.97
2022-11-29T20:59:31.459Z,44.88
2022-11-29T21:02:01.057Z,45.35
2022-11-29T21:04:28.311Z,46.42
2022-11-29T21:06:55.489Z,46.10
2022-11-29T21:09:22.752Z,45.13
2022-11-29T21:11:50.123Z,43.20
2022-11-29T21:14:17.656Z,44.33
2022-11-29T21:16:45.136Z,45.67
2022-11-29T21:19:18.761Z,42.97
2022-11-29T21:22:02.661Z,44.92
2022-11-29T21:25:04.086Z,45.20
2022-11-29T21:27:35.588Z,42.83
2022-11-29T21:30:05.455Z,44.30
2022-11-29T21:32:33.208Z,42.25
2022-11-29T21:35:00.408Z,43.13
2022-11-29T21:37:30.472Z,45.60
2022-11-29T21:39:57.720Z,43.50
2022-11-29T21:42:24.933Z,44.20
2022-11-29T21:44:52.202Z,44.33
2022-11-29T21:47:19.418Z,42.72
2022-11-29T21:49:46.808Z,42.58
2022-11-29T21:52:19.065Z,43.22
2022-11-29T21:54:49.473Z,44.33
2022-11-29T21:57:16.732Z,42.15
2022-11-29T21:59:44.152Z,41.95
2022-11-29T22:02:11.490Z,45.33
2022-11-29T22:04:38.795Z,41.03
2022-11-29T22:07:06.022Z,43.67
2022-11-29T22:09:33.396Z,42.30
2022-11-29T22:12:06.552Z,44.20
2022-11-29T22:14:42.336Z,43.88
2022-11-29T22:17:09.565Z,42.83
2022-11-29T22:19:37.772Z,42.15
2022-11-29T22:22:06.371Z,45.33
2022-11-29T22:24:38.887Z,44.50
2022-11-29T22:27:06.359Z,44.80
2022-11-29T22:29:33.784Z,44.78
2022-11-29T22:32:02.240Z,42.63
2022-11-29T22:34:29.463Z,42.95
2022-11-29T22:36:56.790Z,43.53
2022-11-29T22:39:24.284Z,44.47
2022-11-29T22:41:54.689Z,44.40
2022-11-29T22:44:23.068Z,43.78
2022-11-29T22:46:50.695Z,44.38
2022-11-29T22:49:18.039Z,44.17
2022-11-29T22:51:45.264Z,43.33
2022-11-29T22:54:15.466Z,44.10
2022-11-29T22:56:44.005Z,44.35
2022-11-29T22:59:11.475Z,42.83
2022-11-29T23:01:42.119Z,43.65
2022-11-29T23:04:11.164Z,46.38
2022-11-29T23:06:43.683Z,43.95
2022-11-29T23:09:21.149Z,44.72
2022-11-29T23:11:56.256Z,43.25
2022-11-29T23:14:25.497Z,44.00
2022-11-29T23:16:52.943Z,41.65
2022-11-29T23:19:20.742Z,44.05
2022-11-29T23:21:48.380Z,44.72
2022-11-29T23:24:17.104Z,43.53
2022-11-29T23:26:47.317Z,43.50
2022-11-29T23:29:17.108Z,44.50
2022-11-29T23:31:45.017Z,43.75
2022-11-29T23:34:13.137Z,43.70
2022-11-29T23:36:40.415Z,42.72
2022-11-29T23:39:09.711Z,45.38
2022-11-29T23:41:37.493Z,42.78
2022-11-29T23:44:05.886Z,44.00
2022-11-29T23:46:34.441Z,45.88
2022-11-29T23:49:01.689Z,46.00
2022-11-29T23:51:28.903Z,43.22
2022-11-29T23:53:56.286Z,45.92
2022-11-29T23:56:23.597Z,44.80
2022-11-29T23:58:51.260Z,45.35
